Time;durP1;ratioP1;P1;durP2;ratioP2;P2;SDS_P1;SDS_P2;PMS_P1;PMS_P2;Temp;Humidity;BMP_temperature;BMP_pressure;BME280_temperature;BME280_humidity;BME280_pressure;Samples;Min_cycle;Max_cycle;Signal;HPM_P1;HPM_P2
2023/05/23 00:00:15;;;;;;;2.90;2.70;;;;;;;;;;5160138;27;20205;-67
2023/05/23 00:02:43;;;;;;;3.20;3.00;;;;;;;;;;5159928;27;20201;-67
2023/05/23 00:05:14;;;;;;;3.20;3.00;;;;;;;;;;5160132;27;20201;-67
2023/05/23 00:07:41;;;;;;;3.15;2.95;;;;;;;;;;5159355;27;20206;-67
2023/05/23 00:10:09;;;;;;;3.20;3.00;;;;;;;;;;5159699;27;20565;-67
2023/05/23 00:12:38;;;;;;;3.38;3.17;;;;;;;;;;5160059;27;20208;-67
2023/05/23 00:15:07;;;;;;;3.40;3.10;;;;;;;;;;5159706;27;20202;-67
2023/05/23 00:17:36;;;;;;;3.10;2.90;;;;;;;;;;5160248;27;20212;-67
2023/05/23 00:20:04;;;;;;;3.13;2.92;;;;;;;;;;5160018;27;20288;-67
2023/05/23 00:22:32;;;;;;;3.28;3.08;;;;;;;;;;5160041;27;20577;-67
2023/05/23 00:25:02;;;;;;;3.20;3.00;;;;;;;;;;5159477;27;20206;-67
2023/05/23 00:27:29;;;;;;;3.25;3.05;;;;;;;;;;5159328;27;20236;-67
2023/05/23 00:29:56;;;;;;;3.40;3.20;;;;;;;;;;5159784;27;20206;-67
2023/05/23 00:32:24;;;;;;;3.20;3.00;;;;;;;;;;5159834;27;20201;-67
2023/05/23 00:34:53;;;;;;;3.10;2.90;;;;;;;;;;5159689;27;20497;-67
2023/05/23 00:37:21;;;;;;;3.15;2.95;;;;;;;;;;5160035;27;20589;-67
2023/05/23 00:39:49;;;;;;;2.95;2.80;;;;;;;;;;5159521;27;20275;-67
2023/05/23 00:42:17;;;;;;;3.03;2.83;;;;;;;;;;5159559;27;20488;-67
2023/05/23 00:44:47;;;;;;;3.15;2.95;;;;;;;;;;5159748;27;20514;-67
2023/05/23 00:47:14;;;;;;;3.22;3.03;;;;;;;;;;5159487;27;20589;-67
2023/05/23 00:49:41;;;;;;;3.30;3.10;;;;;;;;;;5159402;27;20229;-67
2023/05/23 00:52:09;;;;;;;3.10;2.92;;;;;;;;;;5159368;27;20220;-67
2023/05/23 00:54:37;;;;;;;3.22;3.03;;;;;;;;;;5159528;27;20201;-67
2023/05/23 00:57:06;;;;;;;2.85;2.65;;;;;;;;;;5159619;27;20202;-66
2023/05/23 00:59:34;;;;;;;3.10;2.90;;;;;;;;;;5159221;27;20201;-67
2023/05/23 01:02:01;;;;;;;3.15;2.95;;;;;;;;;;5159101;27;20235;-66
2023/05/23 01:04:29;;;;;;;2.90;2.70;;;;;;;;;;5159364;27;20202;-66
2023/05/23 01:06:57;;;;;;;3.33;3.13;;;;;;;;;;5159662;27;20213;-66
2023/05/23 01:09:26;;;;;;;3.08;2.88;;;;;;;;;;5159506;27;20231;-67
2023/05/23 01:11:59;;;;;;;3.10;2.90;;;;;;;;;;5163193;27;20278;-67
2023/05/23 01:14:33;;;;;;;3.05;2.85;;;;;;;;;;5163231;27;20201;-67
2023/05/23 01:17:03;;;;;;;3.15;2.95;;;;;;;;;;5162949;27;20232;-67
2023/05/23 01:19:43;;;;;;;2.95;2.75;;;;;;;;;;5163105;27;20212;-67
2023/05/23 01:22:13;;;;;;;3.05;2.85;;;;;;;;;;5163036;27;20201;-67
2023/05/23 01:24:48;;;;;;;2.92;2.75;;;;;;;;;;5163187;27;20201;-66
2023/05/23 01:27:23;;;;;;;3.08;2.88;;;;;;;;;;5162720;27;20201;-66
2023/05/23 01:29:55;;;;;;;2.88;2.67;;;;;;;;;;5162847;27;20229;-67
2023/05/23 01:32:23;;;;;;;3.22;3.03;;;;;;;;;;5162772;27;20202;-66
2023/05/23 01:34:53;;;;;;;2.72;2.60;;;;;;;;;;5162504;27;20212;-66
2023/05/23 01:37:20;;;;;;;3.35;3.15;;;;;;;;;;5162260;27;20214;-66
2023/05/23 01:39:48;;;;;;;3.03;2.83;;;;;;;;;;5162715;27;20581;-66
2023/05/23 01:42:15;;;;;;;2.75;2.63;;;;;;;;;;5162596;27;20198;-67
2023/05/23 01:44:43;;;;;;;2.80;2.70;;;;;;;;;;5162920;27;20540;-66
2023/05/23 01:47:12;;;;;;;2.80;2.70;;;;;;;;;;5162433;27;20201;-67
2023/05/23 01:49:40;;;;;;;2.95;2.75;;;;;;;;;;5162465;27;20230;-67
2023/05/23 01:52:09;;;;;;;3.00;2.80;;;;;;;;;;5162466;27;20205;-67
2023/05/23 01:54:37;;;;;;;3.05;2.85;;;;;;;;;;5162701;27;20201;-67
2023/05/23 01:57:05;;;;;;;3.00;2.80;;;;;;;;;;5162164;27;20194;-67
2023/05/23 01:59:33;;;;;;;3.50;3.20;;;;;;;;;;5162379;27;20586;-68
2023/05/23 02:02:00;;;;;;;2.72;2.53;;;;;;;;;;5162264;27;20205;-67
2023/05/23 02:04:30;;;;;;;2.58;2.47;;;;;;;;;;5162270;27;20206;-67
2023/05/23 02:06:58;;;;;;;3.00;2.80;;;;;;;;;;5162277;27;20201;-67
2023/05/23 02:09:25;;;;;;;2.85;2.65;;;;;;;;;;5162299;27;20236;-66
2023/05/23 02:11:53;;;;;;;3.13;2.92;;;;;;;;;;5162241;27;20201;-66
2023/05/23 02:14:20;;;;;;;3.00;2.80;;;;;;;;;;5162051;27;20292;-66
2023/05/23 02:16:47;;;;;;;3.08;2.88;;;;;;;;;;5161878;27;20206;-66
2023/05/23 02:19:15;;;;;;;2.78;2.58;;;;;;;;;;5161767;27;20263;-68
2023/05/23 02:21:44;;;;;;;2.67;2.58;;;;;;;;;;5161623;27;20298;-67
2023/05/23 02:24:11;;;;;;;2.75;2.60;;;;;;;;;;5161890;27;20212;-67
2023/05/23 02:26:38;;;;;;;3.00;2.80;;;;;;;;;;5162113;27;20206;-67
2023/05/23 02:29:06;;;;;;;2.72;2.53;;;;;;;;;;5161428;27;20246;-66
2023/05/23 02:31:33;;;;;;;2.95;2.75;;;;;;;;;;5161846;27;20248;-66
2023/05/23 02:34:00;;;;;;;2.80;2.60;;;;;;;;;;5161553;27;20213;-66
2023/05/23 02:36:27;;;;;;;2.92;2.72;;;;;;;;;;5161305;27;20505;-66
2023/05/23 02:38:57;;;;;;;2.92;2.72;;;;;;;;;;5161315;27;20205;-66
2023/05/23 02:41:24;;;;;;;2.70;2.60;;;;;;;;;;5161466;27;20209;-67
2023/05/23 02:43:52;;;;;;;2.63;2.53;;;;;;;;;;5161523;27;20577;-66
2023/05/23 02:46:19;;;;;;;2.78;2.58;;;;;;;;;;5161520;27;20208;-66
2023/05/23 02:48:46;;;;;;;2.80;2.60;;;;;;;;;;5161187;27;20233;-66
2023/05/23 02:51:14;;;;;;;2.90;2.70;;;;;;;;;;5161612;27;20284;-66
2023/05/23 02:53:41;;;;;;;2.67;2.53;;;;;;;;;;5160997;27;20209;-66
2023/05/23 02:56:12;;;;;;;2.90;2.70;;;;;;;;;;5160873;27;20223;-66
2023/05/23 02:58:39;;;;;;;2.45;2.35;;;;;;;;;;5161319;27;20198;-67
2023/05/23 03:01:08;;;;;;;3.00;2.80;;;;;;;;;;5160791;27;20201;-67
2023/05/23 03:03:35;;;;;;;2.95;2.75;;;;;;;;;;5161560;27;20202;-67
2023/05/23 03:06:05;;;;;;;2.67;2.58;;;;;;;;;;5161267;27;20558;-67
2023/05/23 03:08:32;;;;;;;2.80;2.60;;;;;;;;;;5161087;27;20202;-66
2023/05/23 03:10:59;;;;;;;2.88;2.70;;;;;;;;;;5160936;27;20205;-66
2023/05/23 03:13:29;;;;;;;2.72;2.53;;;;;;;;;;5160442;27;20708;-66
2023/05/23 03:15:56;;;;;;;2.63;2.53;;;;;;;;;;5160447;27;20368;-66
2023/05/23 03:18:23;;;;;;;2.70;2.50;;;;;;;;;;5160768;27;20201;-66
2023/05/23 03:20:52;;;;;;;2.83;2.63;;;;;;;;;;5160816;27;20216;-67
2023/05/23 03:23:19;;;;;;;2.40;2.30;;;;;;;;;;5160627;27;20201;-66
2023/05/23 03:25:46;;;;;;;2.70;2.60;;;;;;;;;;5160482;27;20208;-67
2023/05/23 03:28:14;;;;;;;2.70;2.50;;;;;;;;;;5159879;27;20632;-67
2023/05/23 03:30:42;;;;;;;2.60;2.50;;;;;;;;;;5159601;27;20225;-67
2023/05/23 03:33:11;;;;;;;3.00;2.80;;;;;;;;;;5159392;27;20494;-66
2023/05/23 03:35:39;;;;;;;2.70;2.60;;;;;;;;;;5160073;27;20213;-66
2023/05/23 03:38:06;;;;;;;2.72;2.63;;;;;;;;;;5159864;27;20202;-66
2023/05/23 03:40:33;;;;;;;2.85;2.65;;;;;;;;;;5160212;27;20202;-66
2023/05/23 03:43:04;;;;;;;2.78;2.60;;;;;;;;;;5160082;27;20202;-67
2023/05/23 03:45:32;;;;;;;2.78;2.58;;;;;;;;;;5160147;27;20213;-66
2023/05/23 03:48:01;;;;;;;3.10;2.90;;;;;;;;;;5159914;27;20201;-66
2023/05/23 03:50:28;;;;;;;2.67;2.58;;;;;;;;;;5159586;27;20235;-66
2023/05/23 03:52:56;;;;;;;2.90;2.70;;;;;;;;;;5159389;27;20209;-67
2023/05/23 03:55:24;;;;;;;2.70;2.60;;;;;;;;;;5159299;27;20224;-67
2023/05/23 03:57:51;;;;;;;2.55;2.45;;;;;;;;;;5159806;27;20244;-66
2023/05/23 04:00:19;;;;;;;2.80;2.60;;;;;;;;;;5159154;27;20240;-66
2023/05/23 04:02:48;;;;;;;3.03;2.83;;;;;;;;;;5159350;27;20224;-67
2023/05/23 04:05:17;;;;;;;2.65;2.45;;;;;;;;;;5159634;27;20216;-67
2023/05/23 04:07:45;;;;;;;2.55;2.45;;;;;;;;;;5159400;27;20212;-67
2023/05/23 04:10:12;;;;;;;2.50;2.40;;;;;;;;;;5159867;27;20233;-67
2023/05/23 04:12:40;;;;;;;2.83;2.63;;;;;;;;;;5159292;27;20237;-67
2023/05/23 04:15:08;;;;;;;2.60;2.50;;;;;;;;;;5159553;27;20209;-67
2023/05/23 04:17:37;;;;;;;2.40;2.30;;;;;;;;;;5159584;27;20205;-67
2023/05/23 04:20:05;;;;;;;2.80;2.60;;;;;;;;;;5159239;27;20208;-67
2023/05/23 04:22:34;;;;;;;2.78;2.67;;;;;;;;;;5158648;27;20202;-67
2023/05/23 04:25:01;;;;;;;2.53;2.40;;;;;;;;;;5158859;27;20215;-67
2023/05/23 04:27:29;;;;;;;2.85;2.65;;;;;;;;;;5158482;27;20234;-67
2023/05/23 04:29:57;;;;;;;2.80;2.60;;;;;;;;;;5158498;27;20320;-67
2023/05/23 04:32:25;;;;;;;2.85;2.65;;;;;;;;;;5158562;27;20213;-67
2023/05/23 04:34:52;;;;;;;2.63;2.50;;;;;;;;;;5158838;27;20303;-67
2023/05/23 04:37:24;;;;;;;2.50;2.40;;;;;;;;;;5158759;27;20201;-67
2023/05/23 04:39:55;;;;;;;2.83;2.63;;;;;;;;;;5158454;27;20209;-66
2023/05/23 04:42:23;;;;;;;3.00;2.80;;;;;;;;;;5158901;27;20533;-66
2023/05/23 04:44:51;;;;;;;2.70;2.60;;;;;;;;;;5159793;27;20220;-66
2023/05/23 04:47:19;;;;;;;2.50;2.40;;;;;;;;;;5162466;27;20299;-67
2023/05/23 04:49:46;;;;;;;2.92;2.72;;;;;;;;;;5163246;27;20221;-67
2023/05/23 04:52:14;;;;;;;2.60;2.50;;;;;;;;;;5162580;27;20209;-67
2023/05/23 04:54:43;;;;;;;2.55;2.45;;;;;;;;;;5162111;27;20202;-67
2023/05/23 04:57:12;;;;;;;2.70;2.60;;;;;;;;;;5162193;27;20205;-66
2023/05/23 04:59:41;;;;;;;2.60;2.40;;;;;;;;;;5161972;27;20206;-67
2023/05/23 05:02:09;;;;;;;2.53;2.40;;;;;;;;;;5161474;27;20217;-67
2023/05/23 05:04:36;;;;;;;2.67;2.58;;;;;;;;;;5162057;27;20250;-66
2023/05/23 05:07:04;;;;;;;3.00;2.80;;;;;;;;;;5161116;27;20213;-67
2023/05/23 05:09:31;;;;;;;2.80;2.67;;;;;;;;;;5161744;27;20228;-66
2023/05/23 05:11:59;;;;;;;5.68;2.72;;;;;;;;;;5161025;27;20209;-67
2023/05/23 05:14:28;;;;;;;2.70;2.60;;;;;;;;;;5159935;27;20209;-66
2023/05/23 05:16:56;;;;;;;2.90;2.70;;;;;;;;;;5160930;27;20201;-67
2023/05/23 05:19:24;;;;;;;2.47;2.38;;;;;;;;;;5160691;27;20197;-66
2023/05/23 05:21:51;;;;;;;2.85;2.65;;;;;;;;;;5160894;27;20495;-66
2023/05/23 05:24:19;;;;;;;2.83;2.65;;;;;;;;;;5160401;27;20205;-66
2023/05/23 05:26:47;;;;;;;2.65;2.55;;;;;;;;;;5160162;27;20237;-66
2023/05/23 05:29:14;;;;;;;2.70;2.60;;;;;;;;;;5160599;27;20726;-67
2023/05/23 05:31:44;;;;;;;2.78;2.58;;;;;;;;;;5160647;27;20198;-66
2023/05/23 05:34:11;;;;;;;2.85;2.65;;;;;;;;;;5160452;27;20700;-66
2023/05/23 05:36:44;;;;;;;2.95;2.75;;;;;;;;;;5160209;27;20296;-66
2023/05/23 05:39:12;;;;;;;2.80;2.70;;;;;;;;;;5160438;27;20265;-66
2023/05/23 05:41:39;;;;;;;3.20;3.00;;;;;;;;;;5159611;27;20212;-66
2023/05/23 05:44:06;;;;;;;3.05;2.85;;;;;;;;;;5160550;27;20262;-66
2023/05/23 05:46:34;;;;;;;2.53;2.42;;;;;;;;;;5160530;27;20198;-66
2023/05/23 05:49:03;;;;;;;2.70;2.50;;;;;;;;;;5159709;27;20213;-66
2023/05/23 05:51:30;;;;;;;2.72;2.63;;;;;;;;;;5159793;27;20232;-67
2023/05/23 05:53:58;;;;;;;2.80;2.60;;;;;;;;;;5160265;27;20285;-66
2023/05/23 05:56:26;;;;;;;3.20;3.00;;;;;;;;;;5159763;27;20197;-66
2023/05/23 05:58:54;;;;;;;3.15;2.88;;;;;;;;;;5160038;27;20201;-67
2023/05/23 06:01:22;;;;;;;3.05;2.85;;;;;;;;;;5159264;27;20198;-66
2023/05/23 06:03:49;;;;;;;2.80;2.60;;;;;;;;;;5159287;27;20607;-66
2023/05/23 06:06:18;;;;;;;3.15;2.95;;;;;;;;;;5160040;27;20309;-66
2023/05/23 06:08:45;;;;;;;2.90;2.70;;;;;;;;;;5160022;27;20205;-67
2023/05/23 06:11:13;;;;;;;3.08;2.88;;;;;;;;;;5159701;27;20229;-66
2023/05/23 06:13:40;;;;;;;3.10;2.90;;;;;;;;;;5159375;27;20198;-67
2023/05/23 06:16:07;;;;;;;3.10;2.90;;;;;;;;;;5159213;27;20308;-66
2023/05/23 06:18:35;;;;;;;3.20;3.00;;;;;;;;;;5159787;27;20204;-66
2023/05/23 06:21:02;;;;;;;3.05;2.85;;;;;;;;;;5158861;27;20470;-66
2023/05/23 06:23:31;;;;;;;3.38;3.10;;;;;;;;;;5159284;27;20613;-67
2023/05/23 06:25:59;;;;;;;3.30;3.10;;;;;;;;;;5159872;27;20684;-66
2023/05/23 06:28:26;;;;;;;3.40;3.10;;;;;;;;;;5159789;27;20298;-66
2023/05/23 06:30:54;;;;;;;3.60;3.40;;;;;;;;;;5159715;27;20236;-66
2023/05/23 06:33:21;;;;;;;3.85;3.55;;;;;;;;;;5159005;27;20193;-66
2023/05/23 06:35:48;;;;;;;3.50;3.30;;;;;;;;;;5159476;27;20202;-66
2023/05/23 06:38:15;;;;;;;3.58;3.28;;;;;;;;;;5159621;27;20201;-66
2023/05/23 06:40:44;;;;;;;3.45;3.25;;;;;;;;;;5159211;27;20198;-66
2023/05/23 06:43:12;;;;;;;3.17;2.92;;;;;;;;;;5159184;27;20201;-67
2023/05/23 06:45:39;;;;;;;3.80;3.50;;;;;;;;;;5158549;27;20212;-66
2023/05/23 06:48:07;;;;;;;3.30;3.10;;;;;;;;;;5159301;27;20281;-66
2023/05/23 06:50:34;;;;;;;3.55;3.25;;;;;;;;;;5159015;27;20237;-66
2023/05/23 06:53:02;;;;;;;3.28;3.08;;;;;;;;;;5158797;27;20201;-66
2023/05/23 06:55:30;;;;;;;3.30;3.10;;;;;;;;;;5159793;27;20209;-68
2023/05/23 06:57:59;;;;;;;3.47;3.28;;;;;;;;;;5159180;27;20205;-68
2023/05/23 07:00:27;;;;;;;3.30;3.10;;;;;;;;;;5158993;27;20727;-66
2023/05/23 07:02:54;;;;;;;3.58;3.38;;;;;;;;;;5159156;27;20209;-66
2023/05/23 07:05:21;;;;;;;3.50;3.30;;;;;;;;;;5158736;27;20202;-65
2023/05/23 07:07:49;;;;;;;3.45;3.25;;;;;;;;;;5157793;27;20612;-66
2023/05/23 07:10:16;;;;;;;3.63;3.33;;;;;;;;;;5158917;27;20213;-66
2023/05/23 07:12:44;;;;;;;4.00;3.70;;;;;;;;;;5159359;27;20715;-66
2023/05/23 07:15:13;;;;;;;3.53;3.33;;;;;;;;;;5159632;27;20239;-66
2023/05/23 07:17:41;;;;;;;3.53;3.28;;;;;;;;;;5159433;27;20569;-66
2023/05/23 07:20:09;;;;;;;3.63;3.42;;;;;;;;;;5159219;27;20197;-66
2023/05/23 07:22:36;;;;;;;3.70;3.40;;;;;;;;;;5158897;27;20194;-66
2023/05/23 07:25:04;;;;;;;3.50;3.30;;;;;;;;;;5159334;27;20237;-65
2023/05/23 07:27:31;;;;;;;3.90;3.60;;;;;;;;;;5159137;27;20236;-65
2023/05/23 07:29:59;;;;;;;3.55;3.35;;;;;;;;;;5158772;27;20202;-66
2023/05/23 07:32:27;;;;;;;3.53;3.33;;;;;;;;;;5158735;27;20224;-66
2023/05/23 07:34:55;;;;;;;3.55;3.28;;;;;;;;;;5158109;27;20201;-65
2023/05/23 07:37:22;;;;;;;3.72;3.53;;;;;;;;;;5157897;27;20764;-66
2023/05/23 07:39:50;;;;;;;3.72;3.40;;;;;;;;;;5158607;27;20201;-65
2023/05/23 07:42:17;;;;;;;3.22;3.03;;;;;;;;;;5158979;27;20201;-65
2023/05/23 07:44:44;;;;;;;3.70;3.50;;;;;;;;;;5158136;27;20644;-66
2023/05/23 07:47:12;;;;;;;3.90;3.60;;;;;;;;;;5158600;27;20201;-66
2023/05/23 07:49:41;;;;;;;3.63;3.33;;;;;;;;;;5158156;27;20197;-66
2023/05/23 07:52:08;;;;;;;4.03;3.63;;;;;;;;;;5157973;27;20222;-65
2023/05/23 07:54:35;;;;;;;3.65;3.35;;;;;;;;;;5157641;27;20212;-65
2023/05/23 07:57:03;;;;;;;3.30;3.10;;;;;;;;;;5157948;27;20212;-66
2023/05/23 07:59:30;;;;;;;4.07;3.78;;;;;;;;;;5157499;27;20216;-66
2023/05/23 08:01:57;;;;;;;3.63;3.42;;;;;;;;;;5158138;27;20198;-66
2023/05/23 08:04:25;;;;;;;3.90;3.60;;;;;;;;;;5157731;27;20200;-65
2023/05/23 08:06:54;;;;;;;4.00;3.70;;;;;;;;;;5158583;27;20205;-64
2023/05/23 08:09:21;;;;;;;3.85;3.65;;;;;;;;;;5157548;27;20593;-66
2023/05/23 08:11:49;;;;;;;4.10;3.80;;;;;;;;;;5156838;27;20239;-67
2023/05/23 08:14:16;;;;;;;4.05;3.72;;;;;;;;;;5157157;27;20240;-68
2023/05/23 08:16:43;;;;;;;4.30;4.00;;;;;;;;;;5157771;27;20574;-68
2023/05/23 08:19:11;;;;;;;3.67;3.45;;;;;;;;;;5158051;27;20246;-66
2023/05/23 08:21:38;;;;;;;4.18;3.88;;;;;;;;;;5157313;27;20481;-67
2023/05/23 08:24:07;;;;;;;3.83;3.60;;;;;;;;;;5157184;27;20279;-66
2023/05/23 08:26:35;;;;;;;3.92;3.60;;;;;;;;;;5157088;27;20201;-67
2023/05/23 08:29:02;;;;;;;3.92;3.63;;;;;;;;;;5157445;27;20228;-66
2023/05/23 08:31:30;;;;;;;4.10;3.80;;;;;;;;;;5156197;27;20233;-66
2023/05/23 08:33:57;;;;;;;3.88;3.58;;;;;;;;;;5157254;27;20212;-66
2023/05/23 08:36:25;;;;;;;3.80;3.60;;;;;;;;;;5156376;27;20208;-66
2023/05/23 08:38:52;;;;;;;4.28;3.92;;;;;;;;;;5156964;27;20201;-67
2023/05/23 08:41:22;;;;;;;4.22;3.92;;;;;;;;;;5157311;27;20209;-67
2023/05/23 08:43:49;;;;;;;3.88;3.58;;;;;;;;;;5157228;27;20202;-66
2023/05/23 08:46:17;;;;;;;3.88;3.67;;;;;;;;;;5157963;27;20471;-66
2023/05/23 08:48:48;;;;;;;4.20;3.75;;;;;;;;;;5157206;27;20197;-66
2023/05/23 08:51:16;;;;;;;3.85;3.65;;;;;;;;;;5156828;27;20397;-66
2023/05/23 08:53:45;;;;;;;4.13;3.83;;;;;;;;;;5156728;27;20197;-67
2023/05/23 08:56:13;;;;;;;4.18;3.88;;;;;;;;;;5157819;27;20536;-67
2023/05/23 08:58:43;;;;;;;4.05;3.75;;;;;;;;;;5156891;27;20221;-66
2023/05/23 09:01:10;;;;;;;3.90;3.60;;;;;;;;;;5157184;27;20262;-66
2023/05/23 09:03:38;;;;;;;4.40;4.10;;;;;;;;;;5156761;27;20201;-67
2023/05/23 09:06:07;;;;;;;4.20;3.90;;;;;;;;;;5156972;27;20202;-66
2023/05/23 09:08:34;;;;;;;3.95;3.65;;;;;;;;;;5156695;27;20216;-66
2023/05/23 09:11:02;;;;;;;3.88;3.58;;;;;;;;;;5156557;27;20221;-66
2023/05/23 09:13:30;;;;;;;4.32;4.03;;;;;;;;;;5156954;27;20225;-67
2023/05/23 09:16:01;;;;;;;4.03;3.72;;;;;;;;;;5156817;27;20265;-67
2023/05/23 09:18:33;;;;;;;4.05;3.75;;;;;;;;;;5157311;27;20204;-66
2023/05/23 09:21:01;;;;;;;4.40;4.10;;;;;;;;;;5156684;27;20589;-66
2023/05/23 09:23:30;;;;;;;3.97;3.67;;;;;;;;;;5157049;27;20202;-66
2023/05/23 09:25:57;;;;;;;4.30;4.00;;;;;;;;;;5157134;27;20200;-66
2023/05/23 09:28:25;;;;;;;4.32;4.03;;;;;;;;;;5156593;27;20366;-66
2023/05/23 09:30:59;;;;;;;4.35;4.05;;;;;;;;;;5157557;27;20810;-66
2023/05/23 09:33:30;;;;;;;4.55;4.15;;;;;;;;;;5160132;27;20200;-66
2023/05/23 09:35:57;;;;;;;4.30;4.00;;;;;;;;;;5159926;27;20197;-67
2023/05/23 09:38:25;;;;;;;4.10;3.80;;;;;;;;;;5160693;27;20208;-66
2023/05/23 09:40:56;;;;;;;4.03;3.78;;;;;;;;;;5160411;27;20198;-66
2023/05/23 09:43:24;;;;;;;4.07;3.78;;;;;;;;;;5159327;27;20244;-67
2023/05/23 09:45:53;;;;;;;4.22;3.92;;;;;;;;;;5159623;27;20194;-66
2023/05/23 09:48:29;;;;;;;4.43;4.13;;;;;;;;;;5159741;27;20225;-66
2023/05/23 09:50:56;;;;;;;4.43;4.13;;;;;;;;;;5159555;27;20225;-66
2023/05/23 09:53:24;;;;;;;4.15;3.85;;;;;;;;;;5159511;27;20265;-66
2023/05/23 09:55:52;;;;;;;4.13;3.83;;;;;;;;;;5159478;27;20310;-68
2023/05/23 09:58:21;;;;;;;4.32;4.03;;;;;;;;;;5159317;27;20209;-67
2023/05/23 10:00:53;;;;;;;4.68;4.32;;;;;;;;;;5159274;27;20692;-67
2023/05/23 10:03:23;;;;;;;4.20;3.90;;;;;;;;;;5158405;27;20240;-66
2023/05/23 10:05:52;;;;;;;4.97;4.20;;;;;;;;;;5159078;27;20197;-66
2023/05/23 10:08:20;;;;;;;4.78;4.43;;;;;;;;;;5159254;27;20229;-66
2023/05/23 10:11:06;;;;;;;4.80;4.40;;;;;;;;;;5158742;27;20294;-67
2023/05/23 10:13:34;;;;;;;4.35;4.05;;;;;;;;;;5158983;27;20712;-66
2023/05/23 10:16:07;;;;;;;4.90;4.60;;;;;;;;;;5158952;27;20205;-66
2023/05/23 10:18:40;;;;;;;4.57;4.28;;;;;;;;;;5159243;27;20627;-66
2023/05/23 10:21:10;;;;;;;4.53;4.13;;;;;;;;;;5158100;27;20202;-66
2023/05/23 10:23:38;;;;;;;4.50;4.20;;;;;;;;;;5157490;27;20212;-66
2023/05/23 10:26:05;;;;;;;4.97;4.57;;;;;;;;;;5158541;27;20198;-66
2023/05/23 10:28:33;;;;;;;4.45;4.10;;;;;;;;;;5157859;27;20249;-66
2023/05/23 10:31:00;;;;;;;4.43;4.13;;;;;;;;;;5157048;27;20265;-66
2023/05/23 10:33:29;;;;;;;4.25;3.95;;;;;;;;;;5157870;27;20197;-66
2023/05/23 10:36:05;;;;;;;4.40;4.10;;;;;;;;;;5157818;27;20539;-66
2023/05/23 10:38:37;;;;;;;4.38;4.07;;;;;;;;;;5158240;27;20194;-66
2023/05/23 10:41:10;;;;;;;4.22;3.92;;;;;;;;;;5157334;27;20197;-66
2023/05/23 10:43:45;;;;;;;4.55;4.25;;;;;;;;;;5157145;27;20209;-67
2023/05/23 10:46:13;;;;;;;3.90;3.60;;;;;;;;;;5157808;27;20201;-66
2023/05/23 10:48:42;;;;;;;4.22;3.92;;;;;;;;;;5158163;27;20209;-66
2023/05/23 10:51:13;;;;;;;4.32;4.03;;;;;;;;;;5157437;27;20277;-67
2023/05/23 10:53:40;;;;;;;4.15;3.85;;;;;;;;;;5157368;27;20200;-66
2023/05/23 10:56:08;;;;;;;3.85;3.65;;;;;;;;;;5158191;27;20209;-67
2023/05/23 10:58:36;;;;;;;3.88;3.58;;;;;;;;;;5157898;27;20212;-66
2023/05/23 11:01:06;;;;;;;4.10;3.80;;;;;;;;;;5158104;27;20743;-66
2023/05/23 11:03:38;;;;;;;3.90;3.60;;;;;;;;;;5158403;27;20201;-66
2023/05/23 11:06:06;;;;;;;3.75;3.45;;;;;;;;;;5156693;27;20198;-66
2023/05/23 11:08:44;;;;;;;4.18;3.88;;;;;;;;;;5157796;27;20197;-66
2023/05/23 11:11:20;;;;;;;3.50;3.30;;;;;;;;;;5157710;27;20201;-66
2023/05/23 11:13:58;;;;;;;3.40;3.20;;;;;;;;;;5138838;27;20254;-66
2023/05/23 11:16:27;;;;;;;4.60;3.28;;;;;;;;;;5156194;27;20208;-66
2023/05/23 11:19:09;;;;;;;3.30;3.10;;;;;;;;;;5157327;27;20202;-66
2023/05/23 11:21:37;;;;;;;3.42;3.22;;;;;;;;;;5157224;27;20263;-67
2023/05/23 11:24:06;;;;;;;3.67;3.47;;;;;;;;;;5157735;27;20297;-67
2023/05/23 11:26:34;;;;;;;3.75;3.45;;;;;;;;;;5157308;27;20205;-67
2023/05/23 11:29:02;;;;;;;3.20;3.00;;;;;;;;;;5156556;27;20221;-67
2023/05/23 11:31:31;;;;;;;3.40;3.20;;;;;;;;;;5157531;27;20292;-67
2023/05/23 11:33:58;;;;;;;3.35;3.15;;;;;;;;;;5157088;27;20201;-67
2023/05/23 11:36:25;;;;;;;3.40;3.20;;;;;;;;;;5156619;27;20201;-67
2023/05/23 11:38:53;;;;;;;3.42;3.13;;;;;;;;;;5157412;27;20208;-67
2023/05/23 11:41:22;;;;;;;3.40;3.10;;;;;;;;;;5156076;27;20193;-67
2023/05/23 11:43:53;;;;;;;3.63;3.33;;;;;;;;;;5156171;27;20609;-67
2023/05/23 11:46:20;;;;;;;3.25;3.05;;;;;;;;;;5156040;27;20205;-67
2023/05/23 11:48:47;;;;;;;4.05;3.38;;;;;;;;;;5155969;27;20612;-67
2023/05/23 11:51:15;;;;;;;3.60;3.30;;;;;;;;;;5156673;27;20201;-67
2023/05/23 11:53:43;;;;;;;3.22;2.88;;;;;;;;;;5154876;27;20262;-67
2023/05/23 11:56:10;;;;;;;3.28;3.08;;;;;;;;;;5156980;27;20197;-67
2023/05/23 11:58:40;;;;;;;3.10;2.90;;;;;;;;;;5155328;27;20205;-67
2023/05/23 12:01:08;;;;;;;3.00;2.80;;;;;;;;;;5156610;27;20589;-67
2023/05/23 12:03:37;;;;;;;2.85;2.65;;;;;;;;;;5155235;27;20204;-67
2023/05/23 12:06:04;;;;;;;3.30;3.10;;;;;;;;;;5156147;27;20241;-67
2023/05/23 12:08:31;;;;;;;3.15;2.90;;;;;;;;;;5156267;27;20209;-67
2023/05/23 12:11:00;;;;;;;2.88;2.67;;;;;;;;;;5156134;27;20212;-67
2023/05/23 12:13:34;;;;;;;3.10;2.85;;;;;;;;;;5156143;27;20327;-67
2023/05/23 12:16:04;;;;;;;3.00;2.80;;;;;;;;;;5156601;27;20201;-67
2023/05/23 12:18:32;;;;;;;3.25;3.00;;;;;;;;;;5156404;27;20202;-67
2023/05/23 12:21:01;;;;;;;2.88;2.63;;;;;;;;;;5157195;27;20201;-67
2023/05/23 12:23:29;;;;;;;3.20;3.00;;;;;;;;;;5157580;27;20296;-67
2023/05/23 12:25:57;;;;;;;2.92;2.72;;;;;;;;;;5156567;27;20212;-67
2023/05/23 12:28:35;;;;;;;2.60;2.50;;;;;;;;;;5156906;27;20532;-67
2023/05/23 12:31:10;;;;;;;3.28;2.97;;;;;;;;;;5155714;27;20202;-67
2023/05/23 12:33:40;;;;;;;2.95;2.70;;;;;;;;;;5156994;27;20228;-67
2023/05/23 12:36:08;;;;;;;2.75;2.55;;;;;;;;;;5155892;27;20768;-67
2023/05/23 12:38:36;;;;;;;3.20;2.90;;;;;;;;;;5156145;27;20237;-67
2023/05/23 12:41:11;;;;;;;2.88;2.67;;;;;;;;;;5156442;27;20201;-67
2023/05/23 12:43:39;;;;;;;2.70;2.50;;;;;;;;;;5156758;27;20200;-67
2023/05/23 12:46:07;;;;;;;2.97;2.78;;;;;;;;;;5156279;27;20228;-67
2023/05/23 12:48:36;;;;;;;3.53;2.70;;;;;;;;;;5155658;27;20245;-67
2023/05/23 12:51:04;;;;;;;2.75;2.55;;;;;;;;;;5156205;27;20227;-67
2023/05/23 12:53:31;;;;;;;2.40;2.10;;;;;;;;;;5156498;27;20221;-67
2023/05/23 12:55:59;;;;;;;2.90;2.70;;;;;;;;;;5157415;27;20206;-68
2023/05/23 12:58:27;;;;;;;2.70;2.50;;;;;;;;;;5156155;27;20209;-66
2023/05/23 13:00:54;;;;;;;2.50;2.40;;;;;;;;;;5155941;27;20565;-66
2023/05/23 13:03:21;;;;;;;2.65;2.45;;;;;;;;;;5155385;27;20216;-66
2023/05/23 13:05:50;;;;;;;2.47;2.38;;;;;;;;;;5157673;27;20206;-67
2023/05/23 13:08:18;;;;;;;2.90;2.70;;;;;;;;;;5159847;27;20201;-67
2023/05/23 13:10:45;;;;;;;2.40;2.30;;;;;;;;;;5158869;27;20296;-68
2023/05/23 13:13:13;;;;;;;2.65;2.50;;;;;;;;;;5159051;27;20228;-66
2023/05/23 13:15:40;;;;;;;2.33;2.22;;;;;;;;;;5159558;27;20223;-68
2023/05/23 13:18:07;;;;;;;2.67;2.47;;;;;;;;;;5159432;27;20209;-66
2023/05/23 13:20:35;;;;;;;2.70;2.50;;;;;;;;;;5158871;27;20217;-67
2023/05/23 13:23:04;;;;;;;2.38;2.28;;;;;;;;;;5159595;27;20201;-66
2023/05/23 13:25:31;;;;;;;2.58;2.38;;;;;;;;;;5159659;27;20194;-66
2023/05/23 13:28:00;;;;;;;2.60;2.40;;;;;;;;;;5159558;27;20234;-68
2023/05/23 13:30:28;;;;;;;2.30;2.20;;;;;;;;;;5159120;27;20209;-67
2023/05/23 13:32:55;;;;;;;2.30;2.17;;;;;;;;;;5159865;27;20237;-68
2023/05/23 13:35:23;;;;;;;2.30;2.17;;;;;;;;;;5158880;27;20583;-67
2023/05/23 13:37:51;;;;;;;2.20;2.10;;;;;;;;;;5158189;27;20204;-66
2023/05/23 13:40:20;;;;;;;2.45;2.25;;;;;;;;;;5159953;27;20201;-66
2023/05/23 13:42:49;;;;;;;2.50;2.30;;;;;;;;;;5160246;27;20212;-67
2023/05/23 13:45:17;;;;;;;2.33;2.13;;;;;;;;;;5159429;27;20201;-67
2023/05/23 13:47:45;;;;;;;2.45;2.33;;;;;;;;;;5159499;27;20296;-67
2023/05/23 13:50:12;;;;;;;2.30;2.10;;;;;;;;;;5159526;27;20573;-67
2023/05/23 13:52:40;;;;;;;2.28;2.17;;;;;;;;;;5159225;27;20231;-67
2023/05/23 13:55:08;;;;;;;2.20;2.10;;;;;;;;;;5159446;27;20208;-67
2023/05/23 13:57:36;;;;;;;2.33;2.20;;;;;;;;;;5159099;27;20197;-67
2023/05/23 14:00:04;;;;;;;2.20;2.10;;;;;;;;;;5159472;27;20476;-66
2023/05/23 14:02:32;;;;;;;1.90;1.80;;;;;;;;;;5157544;27;20205;-66
2023/05/23 14:04:59;;;;;;;2.20;2.10;;;;;;;;;;5157964;27;20497;-67
2023/05/23 14:07:26;;;;;;;2.25;2.08;;;;;;;;;;5158635;27;20209;-67
2023/05/23 14:09:54;;;;;;;2.20;2.10;;;;;;;;;;5158575;27;20658;-67
2023/05/23 14:12:21;;;;;;;1.90;1.80;;;;;;;;;;5158207;27;20223;-67
2023/05/23 14:14:50;;;;;;;2.10;2.00;;;;;;;;;;5158721;27;20197;-67
2023/05/23 14:17:18;;;;;;;2.10;1.90;;;;;;;;;;5158280;27;20205;-67
2023/05/23 14:19:45;;;;;;;2.10;2.00;;;;;;;;;;5158137;27;20528;-67
2023/05/23 14:22:13;;;;;;;1.80;1.70;;;;;;;;;;5158912;27;20208;-66
2023/05/23 14:24:40;;;;;;;1.90;1.80;;;;;;;;;;5157730;27;20490;-68
2023/05/23 14:27:07;;;;;;;2.10;2.00;;;;;;;;;;5157825;27;20210;-67
2023/05/23 14:29:35;;;;;;;2.03;1.92;;;;;;;;;;5158433;27;20301;-67
2023/05/23 14:32:04;;;;;;;2.15;2.05;;;;;;;;;;5157984;27;20201;-66
2023/05/23 14:34:31;;;;;;;1.75;1.65;;;;;;;;;;5158482;27;20209;-67
2023/05/23 14:36:58;;;;;;;2.10;2.00;;;;;;;;;;5157885;27;20198;-67
2023/05/23 14:39:27;;;;;;;2.10;2.00;;;;;;;;;;5158176;27;20613;-67
2023/05/23 14:41:55;;;;;;;1.80;1.70;;;;;;;;;;5157757;27;20259;-66
2023/05/23 14:44:23;;;;;;;1.98;1.85;;;;;;;;;;5158419;27;20198;-67
2023/05/23 14:46:50;;;;;;;1.77;1.67;;;;;;;;;;5157966;27;20209;-67
2023/05/23 14:49:19;;;;;;;1.80;1.70;;;;;;;;;;5157802;27;20292;-67